sensor_id;sensor_type;location;lat;lon;timestamp;P1;durP1;ratioP1;P2;durP2;ratioP2
65315;SDS011;51920;53.952;10.292;2023-07-22T00:01:27;7.87;;;5.43;;
65315;SDS011;51920;53.952;10.292;2023-07-22T00:03:54;10.40;;;5.93;;
65315;SDS011;51920;53.952;10.292;2023-07-22T00:06:22;8.10;;;5.43;;
65315;SDS011;51920;53.952;10.292;2023-07-22T00:08:49;9.50;;;5.80;;
65315;SDS011;51920;53.952;10.292;2023-07-22T00:11:16;9.10;;;5.97;;
65315;SDS011;51920;53.952;10.292;2023-07-22T00:13:43;9.03;;;6.17;;
65315;SDS011;51920;53.952;10.292;2023-07-22T00:16:10;8.88;;;5.95;;
65315;SDS011;51920;53.952;10.292;2023-07-22T00:18:37;10.88;;;6.35;;
65315;SDS011;51920;53.952;10.292;2023-07-22T00:21:03;9.57;;;6.65;;
65315;SDS011;51920;53.952;10.292;2023-07-22T00:23:30;11.07;;;6.18;;
65315;SDS011;51920;53.952;10.292;2023-07-22T00:25:57;8.83;;;5.60;;
65315;SDS011;51920;53.952;10.292;2023-07-22T00:28:23;9.32;;;6.03;;
65315;SDS011;51920;53.952;10.292;2023-07-22T00:30:50;9.48;;;6.55;;
65315;SDS011;51920;53.952;10.292;2023-07-22T00:33:19;10.35;;;6.57;;
65315;SDS011;51920;53.952;10.292;2023-07-22T00:35:49;10.23;;;6.40;;
65315;SDS011;51920;53.952;10.292;2023-07-22T00:38:17;11.07;;;6.60;;
65315;SDS011;51920;53.952;10.292;2023-07-22T00:40:44;11.60;;;6.35;;
65315;SDS011;51920;53.952;10.292;2023-07-22T00:43:10;11.77;;;6.35;;
65315;SDS011;51920;53.952;10.292;2023-07-22T00:45:37;9.98;;;6.30;;
65315;SDS011;51920;53.952;10.292;2023-07-22T00:48:05;10.38;;;6.32;;
65315;SDS011;51920;53.952;10.292;2023-07-22T00:50:32;12.90;;;6.60;;
65315;SDS011;51920;53.952;10.292;2023-07-22T00:52:59;10.00;;;6.10;;
65315;SDS011;51920;53.952;10.292;2023-07-22T00:55:26;10.52;;;6.40;;
65315;SDS011;51920;53.952;10.292;2023-07-22T00:57:54;11.13;;;7.20;;
65315;SDS011;51920;53.952;10.292;2023-07-22T01:00:22;11.63;;;6.80;;
65315;SDS011;51920;53.952;10.292;2023-07-22T01:02:48;10.23;;;6.53;;
65315;SDS011;51920;53.952;10.292;2023-07-22T01:05:15;11.73;;;6.97;;
65315;SDS011;51920;53.952;10.292;2023-07-22T01:07:42;10.73;;;6.78;;
65315;SDS011;51920;53.952;10.292;2023-07-22T01:10:10;11.38;;;6.15;;
65315;SDS011;51920;53.952;10.292;2023-07-22T01:12:36;11.45;;;6.60;;
65315;SDS011;51920;53.952;10.292;2023-07-22T01:15:04;9.27;;;6.13;;
65315;SDS011;51920;53.952;10.292;2023-07-22T01:17:34;8.95;;;5.78;;
65315;SDS011;51920;53.952;10.292;2023-07-22T01:20:03;10.32;;;6.13;;
65315;SDS011;51920;53.952;10.292;2023-07-22T01:22:31;13.18;;;5.80;;
65315;SDS011;51920;53.952;10.292;2023-07-22T01:24:58;7.80;;;5.25;;
65315;SDS011;51920;53.952;10.292;2023-07-22T01:27:26;8.53;;;5.40;;
65315;SDS011;51920;53.952;10.292;2023-07-22T01:29:53;8.75;;;5.55;;
65315;SDS011;51920;53.952;10.292;2023-07-22T01:32:20;10.40;;;6.20;;
65315;SDS011;51920;53.952;10.292;2023-07-22T01:34:46;10.43;;;5.72;;
65315;SDS011;51920;53.952;10.292;2023-07-22T01:37:13;9.25;;;5.88;;
65315;SDS011;51920;53.952;10.292;2023-07-22T01:39:39;10.40;;;5.97;;
65315;SDS011;51920;53.952;10.292;2023-07-22T01:42:06;11.35;;;6.40;;
65315;SDS011;51920;53.952;10.292;2023-07-22T01:44:33;12.23;;;6.55;;
65315;SDS011;51920;53.952;10.292;2023-07-22T01:47:01;10.07;;;6.10;;
65315;SDS011;51920;53.952;10.292;2023-07-22T01:49:29;9.98;;;5.88;;
65315;SDS011;51920;53.952;10.292;2023-07-22T01:51:55;9.47;;;6.10;;
65315;SDS011;51920;53.952;10.292;2023-07-22T01:54:22;11.10;;;5.93;;
65315;SDS011;51920;53.952;10.292;2023-07-22T01:56:49;10.98;;;6.10;;
65315;SDS011;51920;53.952;10.292;2023-07-22T01:59:15;11.55;;;5.70;;
65315;SDS011;51920;53.952;10.292;2023-07-22T02:01:42;9.75;;;5.90;;
65315;SDS011;51920;53.952;10.292;2023-07-22T02:04:08;12.07;;;6.00;;
65315;SDS011;51920;53.952;10.292;2023-07-22T02:06:37;10.65;;;6.07;;
65315;SDS011;51920;53.952;10.292;2023-07-22T02:09:03;11.82;;;5.65;;
65315;SDS011;51920;53.952;10.292;2023-07-22T02:11:37;10.80;;;5.50;;
65315;SDS011;51920;53.952;10.292;2023-07-22T02:14:04;9.27;;;5.55;;
65315;SDS011;51920;53.952;10.292;2023-07-22T02:16:37;12.00;;;5.17;;
65315;SDS011;51920;53.952;10.292;2023-07-22T02:19:04;8.57;;;5.00;;
65315;SDS011;51920;53.952;10.292;2023-07-22T02:21:38;8.95;;;5.07;;
65315;SDS011;51920;53.952;10.292;2023-07-22T02:24:05;11.55;;;5.75;;
65315;SDS011;51920;53.952;10.292;2023-07-22T02:26:32;8.77;;;5.18;;
65315;SDS011;51920;53.952;10.292;2023-07-22T02:28:58;10.00;;;5.70;;
65315;SDS011;51920;53.952;10.292;2023-07-22T02:31:25;11.40;;;5.93;;
65315;SDS011;51920;53.952;10.292;2023-07-22T02:33:52;10.65;;;5.85;;
65315;SDS011;51920;53.952;10.292;2023-07-22T02:36:18;15.05;;;6.25;;
65315;SDS011;51920;53.952;10.292;2023-07-22T02:38:45;10.88;;;6.32;;
65315;SDS011;51920;53.952;10.292;2023-07-22T02:41:12;10.93;;;5.97;;
65315;SDS011;51920;53.952;10.292;2023-07-22T02:43:38;11.75;;;6.28;;
65315;SDS011;51920;53.952;10.292;2023-07-22T02:46:06;11.55;;;6.65;;
65315;SDS011;51920;53.952;10.292;2023-07-22T02:48:34;11.85;;;6.13;;
65315;SDS011;51920;53.952;10.292;2023-07-22T02:51:05;10.70;;;6.15;;
65315;SDS011;51920;53.952;10.292;2023-07-22T02:53:33;13.70;;;6.20;;
65315;SDS011;51920;53.952;10.292;2023-07-22T02:56:00;14.93;;;6.38;;
65315;SDS011;51920;53.952;10.292;2023-07-22T02:58:27;10.93;;;5.85;;
65315;SDS011;51920;53.952;10.292;2023-07-22T03:00:53;10.75;;;5.90;;
65315;SDS011;51920;53.952;10.292;2023-07-22T03:03:20;10.40;;;5.80;;
65315;SDS011;51920;53.952;10.292;2023-07-22T03:05:47;10.93;;;5.90;;
65315;SDS011;51920;53.952;10.292;2023-07-22T03:08:14;10.88;;;5.80;;
65315;SDS011;51920;53.952;10.292;2023-07-22T03:10:41;9.50;;;5.45;;
65315;SDS011;51920;53.952;10.292;2023-07-22T03:13:10;11.65;;;5.90;;
65315;SDS011;51920;53.952;10.292;2023-07-22T03:15:36;9.38;;;5.60;;
65315;SDS011;51920;53.952;10.292;2023-07-22T03:18:03;9.37;;;4.93;;
65315;SDS011;51920;53.952;10.292;2023-07-22T03:20:31;9.55;;;5.18;;
65315;SDS011;51920;53.952;10.292;2023-07-22T03:22:57;11.20;;;5.25;;
65315;SDS011;51920;53.952;10.292;2023-07-22T03:25:24;9.57;;;5.05;;
65315;SDS011;51920;53.952;10.292;2023-07-22T03:27:51;8.75;;;5.07;;
65315;SDS011;51920;53.952;10.292;2023-07-22T03:30:18;7.80;;;4.93;;
65315;SDS011;51920;53.952;10.292;2023-07-22T03:32:48;9.60;;;4.90;;
65315;SDS011;51920;53.952;10.292;2023-07-22T03:35:17;8.82;;;4.70;;
65315;SDS011;51920;53.952;10.292;2023-07-22T03:37:43;10.77;;;5.00;;
65315;SDS011;51920;53.952;10.292;2023-07-22T03:40:10;9.20;;;5.35;;
65315;SDS011;51920;53.952;10.292;2023-07-22T03:42:40;10.83;;;5.20;;
65315;SDS011;51920;53.952;10.292;2023-07-22T03:45:07;11.27;;;5.90;;
65315;SDS011;51920;53.952;10.292;2023-07-22T03:47:36;10.73;;;6.00;;
65315;SDS011;51920;53.952;10.292;2023-07-22T03:50:02;12.63;;;6.13;;
65315;SDS011;51920;53.952;10.292;2023-07-22T03:52:29;13.70;;;6.55;;
65315;SDS011;51920;53.952;10.292;2023-07-22T03:54:56;12.67;;;6.57;;
65315;SDS011;51920;53.952;10.292;2023-07-22T03:57:26;11.27;;;6.40;;
65315;SDS011;51920;53.952;10.292;2023-07-22T03:59:53;12.65;;;6.43;;
65315;SDS011;51920;53.952;10.292;2023-07-22T04:02:20;13.70;;;7.15;;
65315;SDS011;51920;53.952;10.292;2023-07-22T04:04:47;12.35;;;6.68;;
65315;SDS011;51920;53.952;10.292;2023-07-22T04:07:14;13.07;;;7.27;;
65315;SDS011;51920;53.952;10.292;2023-07-22T04:09:41;12.85;;;6.80;;
65315;SDS011;51920;53.952;10.292;2023-07-22T04:12:08;14.77;;;7.05;;
65315;SDS011;51920;53.952;10.292;2023-07-22T04:14:34;13.25;;;6.75;;
65315;SDS011;51920;53.952;10.292;2023-07-22T04:17:02;13.32;;;7.03;;
65315;SDS011;51920;53.952;10.292;2023-07-22T04:19:30;14.20;;;7.27;;
65315;SDS011;51920;53.952;10.292;2023-07-22T04:21:57;13.48;;;6.63;;
65315;SDS011;51920;53.952;10.292;2023-07-22T04:24:24;13.77;;;7.28;;
65315;SDS011;51920;53.952;10.292;2023-07-22T04:26:51;13.55;;;6.43;;
65315;SDS011;51920;53.952;10.292;2023-07-22T04:29:18;13.77;;;6.65;;
65315;SDS011;51920;53.952;10.292;2023-07-22T04:31:44;13.20;;;6.43;;
65315;SDS011;51920;53.952;10.292;2023-07-22T04:34:11;13.57;;;6.07;;
65315;SDS011;51920;53.952;10.292;2023-07-22T04:36:38;11.48;;;5.97;;
65315;SDS011;51920;53.952;10.292;2023-07-22T04:39:05;11.38;;;6.05;;
65315;SDS011;51920;53.952;10.292;2023-07-22T04:41:32;11.90;;;6.05;;
65315;SDS011;51920;53.952;10.292;2023-07-22T04:43:58;10.07;;;5.50;;
65315;SDS011;51920;53.952;10.292;2023-07-22T04:46:25;10.60;;;5.63;;
65315;SDS011;51920;53.952;10.292;2023-07-22T04:48:56;10.52;;;5.72;;
65315;SDS011;51920;53.952;10.292;2023-07-22T04:51:24;11.50;;;6.05;;
65315;SDS011;51920;53.952;10.292;2023-07-22T04:53:50;10.52;;;5.53;;
65315;SDS011;51920;53.952;10.292;2023-07-22T04:56:17;10.40;;;5.17;;
65315;SDS011;51920;53.952;10.292;2023-07-22T04:58:44;12.48;;;5.57;;
65315;SDS011;51920;53.952;10.292;2023-07-22T05:01:10;9.60;;;5.78;;
65315;SDS011;51920;53.952;10.292;2023-07-22T05:03:37;9.73;;;5.55;;
65315;SDS011;51920;53.952;10.292;2023-07-22T05:06:03;10.77;;;5.28;;
65315;SDS011;51920;53.952;10.292;2023-07-22T05:08:30;9.87;;;5.13;;
65315;SDS011;51920;53.952;10.292;2023-07-22T05:10:57;9.98;;;5.60;;
65315;SDS011;51920;53.952;10.292;2023-07-22T05:13:24;11.38;;;5.57;;
65315;SDS011;51920;53.952;10.292;2023-07-22T05:15:50;9.00;;;5.45;;
65315;SDS011;51920;53.952;10.292;2023-07-22T05:18:17;8.98;;;5.32;;
65315;SDS011;51920;53.952;10.292;2023-07-22T05:20:43;9.53;;;5.50;;
65315;SDS011;51920;53.952;10.292;2023-07-22T05:23:11;9.77;;;5.38;;
65315;SDS011;51920;53.952;10.292;2023-07-22T05:25:38;9.88;;;5.72;;
65315;SDS011;51920;53.952;10.292;2023-07-22T05:28:04;10.63;;;5.55;;
65315;SDS011;51920;53.952;10.292;2023-07-22T05:30:31;9.38;;;5.40;;
65315;SDS011;51920;53.952;10.292;2023-07-22T05:33:00;9.80;;;5.30;;
65315;SDS011;51920;53.952;10.292;2023-07-22T05:35:26;9.65;;;5.18;;
65315;SDS011;51920;53.952;10.292;2023-07-22T05:37:53;8.88;;;5.18;;
65315;SDS011;51920;53.952;10.292;2023-07-22T05:40:20;7.55;;;4.38;;
65315;SDS011;51920;53.952;10.292;2023-07-22T05:42:46;6.93;;;4.00;;
65315;SDS011;51920;53.952;10.292;2023-07-22T05:45:13;8.97;;;4.20;;
65315;SDS011;51920;53.952;10.292;2023-07-22T05:47:41;8.77;;;3.85;;
65315;SDS011;51920;53.952;10.292;2023-07-22T05:50:08;7.60;;;4.00;;
65315;SDS011;51920;53.952;10.292;2023-07-22T05:52:35;7.47;;;4.25;;
65315;SDS011;51920;53.952;10.292;2023-07-22T05:55:02;7.68;;;3.80;;
65315;SDS011;51920;53.952;10.292;2023-07-22T05:57:29;7.83;;;3.93;;
65315;SDS011;51920;53.952;10.292;2023-07-22T05:59:56;6.93;;;3.53;;
65315;SDS011;51920;53.952;10.292;2023-07-22T06:02:37;5.40;;;3.72;;
65315;SDS011;51920;53.952;10.292;2023-07-22T06:05:04;5.43;;;3.42;;
65315;SDS011;51920;53.952;10.292;2023-07-22T06:07:30;5.93;;;2.92;;
65315;SDS011;51920;53.952;10.292;2023-07-22T06:09:57;5.50;;;2.60;;
65315;SDS011;51920;53.952;10.292;2023-07-22T06:12:23;5.72;;;3.08;;
65315;SDS011;51920;53.952;10.292;2023-07-22T06:14:50;4.43;;;3.08;;
65315;SDS011;51920;53.952;10.292;2023-07-22T06:17:16;4.90;;;3.13;;
65315;SDS011;51920;53.952;10.292;2023-07-22T06:19:43;4.88;;;2.90;;
65315;SDS011;51920;53.952;10.292;2023-07-22T06:22:10;6.43;;;3.00;;
65315;SDS011;51920;53.952;10.292;2023-07-22T06:24:36;3.90;;;2.78;;
65315;SDS011;51920;53.952;10.292;2023-07-22T06:27:03;3.55;;;2.55;;
65315;SDS011;51920;53.952;10.292;2023-07-22T06:29:30;3.65;;;2.22;;
65315;SDS011;51920;53.952;10.292;2023-07-22T06:31:56;4.00;;;2.30;;
65315;SDS011;51920;53.952;10.292;2023-07-22T06:34:23;4.03;;;2.10;;
65315;SDS011;51920;53.952;10.292;2023-07-22T06:36:50;5.78;;;2.40;;
65315;SDS011;51920;53.952;10.292;2023-07-22T06:39:16;4.80;;;2.33;;
65315;SDS011;51920;53.952;10.292;2023-07-22T06:41:43;4.25;;;2.10;;
65315;SDS011;51920;53.952;10.292;2023-07-22T06:44:11;3.47;;;2.03;;
65315;SDS011;51920;53.952;10.292;2023-07-22T06:46:38;2.67;;;1.90;;
65315;SDS011;51920;53.952;10.292;2023-07-22T06:49:05;4.38;;;1.90;;
65315;SDS011;51920;53.952;10.292;2023-07-22T06:51:31;3.45;;;2.00;;
65315;SDS011;51920;53.952;10.292;2023-07-22T06:53:58;4.10;;;1.80;;
65315;SDS011;51920;53.952;10.292;2023-07-22T06:56:24;2.78;;;1.80;;
65315;SDS011;51920;53.952;10.292;2023-07-22T06:58:52;3.23;;;1.70;;
65315;SDS011;51920;53.952;10.292;2023-07-22T07:01:19;1.90;;;1.50;;
65315;SDS011;51920;53.952;10.292;2023-07-22T07:03:45;4.78;;;1.50;;
65315;SDS011;51920;53.952;10.292;2023-07-22T07:06:12;2.97;;;1.70;;
65315;SDS011;51920;53.952;10.292;2023-07-22T07:08:39;2.90;;;1.90;;
65315;SDS011;51920;53.952;10.292;2023-07-22T07:11:05;2.97;;;1.87;;
65315;SDS011;51920;53.952;10.292;2023-07-22T07:13:33;2.53;;;1.50;;
65315;SDS011;51920;53.952;10.292;2023-07-22T07:16:19;3.70;;;1.85;;
65315;SDS011;51920;53.952;10.292;2023-07-22T07:18:47;2.53;;;1.50;;
65315;SDS011;51920;53.952;10.292;2023-07-22T07:21:14;3.38;;;1.73;;
65315;SDS011;51920;53.952;10.292;2023-07-22T07:23:41;2.67;;;1.80;;
65315;SDS011;51920;53.952;10.292;2023-07-22T07:26:07;3.13;;;1.65;;
65315;SDS011;51920;53.952;10.292;2023-07-22T07:28:34;2.05;;;1.50;;
65315;SDS011;51920;53.952;10.292;2023-07-22T07:31:01;1.67;;;1.45;;
65315;SDS011;51920;53.952;10.292;2023-07-22T07:33:28;3.38;;;1.70;;
65315;SDS011;51920;53.952;10.292;2023-07-22T07:35:55;3.33;;;1.40;;
65315;SDS011;51920;53.952;10.292;2023-07-22T07:38:21;2.38;;;1.45;;
65315;SDS011;51920;53.952;10.292;2023-07-22T07:40:52;2.72;;;1.50;;
65315;SDS011;51920;53.952;10.292;2023-07-22T07:43:20;3.45;;;1.38;;
65315;SDS011;51920;53.952;10.292;2023-07-22T07:45:46;1.75;;;1.50;;
65315;SDS011;51920;53.952;10.292;2023-07-22T07:48:14;3.17;;;1.57;;
65315;SDS011;51920;53.952;10.292;2023-07-22T07:50:41;3.30;;;1.60;;
65315;SDS011;51920;53.952;10.292;2023-07-22T07:53:08;3.17;;;1.60;;
65315;SDS011;51920;53.952;10.292;2023-07-22T07:55:35;4.68;;;1.70;;
65315;SDS011;51920;53.952;10.292;2023-07-22T07:58:01;2.30;;;1.42;;
65315;SDS011;51920;53.952;10.292;2023-07-22T08:00:28;1.70;;;1.20;;
65315;SDS011;51920;53.952;10.292;2023-07-22T08:02:55;3.67;;;1.20;;
65315;SDS011;51920;53.952;10.292;2023-07-22T08:05:23;3.33;;;1.48;;
65315;SDS011;51920;53.952;10.292;2023-07-22T08:07:50;4.97;;;1.27;;
65315;SDS011;51920;53.952;10.292;2023-07-22T08:10:16;3.28;;;1.40;;
65315;SDS011;51920;53.952;10.292;2023-07-22T08:12:44;2.50;;;1.53;;
65315;SDS011;51920;53.952;10.292;2023-07-22T08:15:11;1.83;;;1.40;;
65315;SDS011;51920;53.952;10.292;2023-07-22T08:17:38;2.40;;;1.45;;
65315;SDS011;51920;53.952;10.292;2023-07-22T08:20:05;1.80;;;1.55;;
65315;SDS011;51920;53.952;10.292;2023-07-22T08:22:33;2.45;;;1.70;;
65315;SDS011;51920;53.952;10.292;2023-07-22T08:25:00;3.20;;;1.37;;
65315;SDS011;51920;53.952;10.292;2023-07-22T08:27:28;2.58;;;1.40;;
65315;SDS011;51920;53.952;10.292;2023-07-22T08:29:55;1.60;;;1.35;;
65315;SDS011;51920;53.952;10.292;2023-07-22T08:32:22;2.65;;;1.60;;
65315;SDS011;51920;53.952;10.292;2023-07-22T08:34:48;4.68;;;1.60;;
65315;SDS011;51920;53.952;10.292;2023-07-22T08:37:15;3.10;;;1.60;;
65315;SDS011;51920;53.952;10.292;2023-07-22T08:39:42;2.70;;;1.50;;
65315;SDS011;51920;53.952;10.292;2023-07-22T08:42:08;2.58;;;1.70;;
65315;SDS011;51920;53.952;10.292;2023-07-22T08:44:36;4.20;;;1.60;;
65315;SDS011;51920;53.952;10.292;2023-07-22T08:47:06;1.90;;;1.60;;
65315;SDS011;51920;53.952;10.292;2023-07-22T08:49:36;1.87;;;1.30;;
65315;SDS011;51920;53.952;10.292;2023-07-22T08:52:03;3.55;;;2.25;;
65315;SDS011;51920;53.952;10.292;2023-07-22T08:54:30;2.38;;;1.60;;
65315;SDS011;51920;53.952;10.292;2023-07-22T08:56:57;4.03;;;1.55;;
65315;SDS011;51920;53.952;10.292;2023-07-22T08:59:24;3.08;;;1.60;;
65315;SDS011;51920;53.952;10.292;2023-07-22T09:01:51;2.93;;;1.50;;
65315;SDS011;51920;53.952;10.292;2023-07-22T09:04:19;3.67;;;1.48;;
65315;SDS011;51920;53.952;10.292;2023-07-22T09:06:46;1.90;;;1.50;;
65315;SDS011;51920;53.952;10.292;2023-07-22T09:09:13;1.92;;;1.40;;
65315;SDS011;51920;53.952;10.292;2023-07-22T09:11:41;3.30;;;1.70;;
65315;SDS011;51920;53.952;10.292;2023-07-22T09:14:10;1.77;;;1.30;;
65315;SDS011;51920;53.952;10.292;2023-07-22T09:16:38;3.38;;;1.50;;
65315;SDS011;51920;53.952;10.292;2023-07-22T09:19:05;3.10;;;1.48;;
65315;SDS011;51920;53.952;10.292;2023-07-22T09:21:32;2.97;;;1.60;;
65315;SDS011;51920;53.952;10.292;2023-07-22T09:24:04;3.03;;;1.50;;
65315;SDS011;51920;53.952;10.292;2023-07-22T09:26:47;2.03;;;1.50;;
65315;SDS011;51920;53.952;10.292;2023-07-22T09:29:14;3.90;;;1.52;;
65315;SDS011;51920;53.952;10.292;2023-07-22T09:31:53;2.53;;;1.55;;
65315;SDS011;51920;53.952;10.292;2023-07-22T09:34:55;3.22;;;1.63;;
65315;SDS011;51920;53.952;10.292;2023-07-22T09:37:47;2.72;;;1.55;;
65315;SDS011;51920;53.952;10.292;2023-07-22T09:42:55;2.50;;;1.40;;
65315;SDS011;51920;53.952;10.292;2023-07-22T09:45:33;2.33;;;1.60;;
65315;SDS011;51920;53.952;10.292;2023-07-22T09:48:01;2.95;;;1.80;;
65315;SDS011;51920;53.952;10.292;2023-07-22T09:50:28;2.22;;;1.70;;
65315;SDS011;51920;53.952;10.292;2023-07-22T09:53:01;2.90;;;1.70;;
65315;SDS011;51920;53.952;10.292;2023-07-22T09:55:30;2.83;;;1.80;;
65315;SDS011;51920;53.952;10.292;2023-07-22T09:57:59;2.28;;;1.83;;
65315;SDS011;51920;53.952;10.292;2023-07-22T10:00:33;3.63;;;1.70;;
65315;SDS011;51920;53.952;10.292;2023-07-22T10:03:02;2.65;;;2.00;;
65315;SDS011;51920;53.952;10.292;2023-07-22T10:05:35;2.50;;;1.80;;
65315;SDS011;51920;53.952;10.292;2023-07-22T10:08:05;2.42;;;1.75;;
65315;SDS011;51920;53.952;10.292;2023-07-22T10:10:34;3.50;;;1.73;;
65315;SDS011;51920;53.952;10.292;2023-07-22T10:13:04;2.58;;;1.52;;
65315;SDS011;51920;53.952;10.292;2023-07-22T10:15:32;2.97;;;1.50;;
65315;SDS011;51920;53.952;10.292;2023-07-22T10:18:00;2.37;;;1.50;;
65315;SDS011;51920;53.952;10.292;2023-07-22T10:20:29;4.43;;;1.70;;
65315;SDS011;51920;53.952;10.292;2023-07-22T10:22:56;2.97;;;1.75;;
65315;SDS011;51920;53.952;10.292;2023-07-22T10:25:24;3.10;;;1.77;;
65315;SDS011;51920;53.952;10.292;2023-07-22T10:27:51;2.35;;;1.50;;
65315;SDS011;51920;53.952;10.292;2023-07-22T10:30:19;2.07;;;1.50;;
65315;SDS011;51920;53.952;10.292;2023-07-22T10:32:46;2.08;;;1.60;;
65315;SDS011;51920;53.952;10.292;2023-07-22T10:38:09;1.92;;;1.50;;
65315;SDS011;51920;53.952;10.292;2023-07-22T10:40:46;2.38;;;1.50;;
65315;SDS011;51920;53.952;10.292;2023-07-22T10:43:15;2.47;;;1.50;;
65315;SDS011;51920;53.952;10.292;2023-07-22T10:45:49;2.92;;;1.50;;
65315;SDS011;51920;53.952;10.292;2023-07-22T10:48:18;2.65;;;1.55;;
65315;SDS011;51920;53.952;10.292;2023-07-22T10:50:46;1.75;;;1.50;;
65315;SDS011;51920;53.952;10.292;2023-07-22T11:12:17;2.08;;;1.50;;
65315;SDS011;51920;53.952;10.292;2023-07-22T11:15:03;2.75;;;1.40;;
65315;SDS011;51920;53.952;10.292;2023-07-22T11:17:32;4.15;;;1.60;;
65315;SDS011;51920;53.952;10.292;2023-07-22T11:19:59;2.60;;;1.58;;
65315;SDS011;51920;53.952;10.292;2023-07-22T11:22:27;4.80;;;2.37;;
65315;SDS011;51920;53.952;10.292;2023-07-22T11:24:57;3.13;;;1.48;;
65315;SDS011;51920;53.952;10.292;2023-07-22T11:27:26;1.92;;;1.40;;
65315;SDS011;51920;53.952;10.292;2023-07-22T11:29:53;1.70;;;1.25;;
65315;SDS011;51920;53.952;10.292;2023-07-22T11:32:24;3.10;;;1.50;;
65315;SDS011;51920;53.952;10.292;2023-07-22T11:34:51;2.73;;;1.40;;
65315;SDS011;51920;53.952;10.292;2023-07-22T11:37:19;1.40;;;1.17;;
65315;SDS011;51920;53.952;10.292;2023-07-22T11:39:46;2.00;;;1.40;;
65315;SDS011;51920;53.952;10.292;2023-07-22T11:42:13;1.77;;;1.23;;
65315;SDS011;51920;53.952;10.292;2023-07-22T11:44:40;2.58;;;1.63;;
65315;SDS011;51920;53.952;10.292;2023-07-22T11:47:07;1.67;;;1.30;;
65315;SDS011;51920;53.952;10.292;2023-07-22T11:49:38;1.90;;;1.30;;
65315;SDS011;51920;53.952;10.292;2023-07-22T11:54:40;2.28;;;1.33;;
65315;SDS011;51920;53.952;10.292;2023-07-22T11:57:15;2.75;;;1.40;;
65315;SDS011;51920;53.952;10.292;2023-07-22T11:59:47;3.03;;;1.30;;
65315;SDS011;51920;53.952;10.292;2023-07-22T12:02:16;3.58;;;1.23;;
65315;SDS011;51920;53.952;10.292;2023-07-22T12:04:57;2.70;;;1.20;;
65315;SDS011;51920;53.952;10.292;2023-07-22T12:07:32;2.13;;;1.40;;
65315;SDS011;51920;53.952;10.292;2023-07-22T12:10:01;4.65;;;1.50;;
65315;SDS011;51920;53.952;10.292;2023-07-22T12:12:32;2.27;;;1.13;;
65315;SDS011;51920;53.952;10.292;2023-07-22T12:15:09;1.92;;;1.30;;
65315;SDS011;51920;53.952;10.292;2023-07-22T12:17:43;2.53;;;1.60;;
65315;SDS011;51920;53.952;10.292;2023-07-22T12:20:11;1.83;;;1.42;;
65315;SDS011;51920;53.952;10.292;2023-07-22T12:22:38;2.70;;;1.60;;
65315;SDS011;51920;53.952;10.292;2023-07-22T12:25:05;1.93;;;1.20;;
65315;SDS011;51920;53.952;10.292;2023-07-22T12:27:33;3.05;;;1.58;;
65315;SDS011;51920;53.952;10.292;2023-07-22T12:30:00;2.55;;;1.65;;
65315;SDS011;51920;53.952;10.292;2023-07-22T12:32:27;3.97;;;1.35;;
65315;SDS011;51920;53.952;10.292;2023-07-22T12:34:54;1.70;;;1.30;;
65315;SDS011;51920;53.952;10.292;2023-07-22T12:37:21;2.17;;;1.40;;
65315;SDS011;51920;53.952;10.292;2023-07-22T12:39:47;2.10;;;1.40;;
65315;SDS011;51920;53.952;10.292;2023-07-22T12:42:14;2.30;;;1.40;;
65315;SDS011;51920;53.952;10.292;2023-07-22T12:44:41;1.80;;;1.55;;
65315;SDS011;51920;53.952;10.292;2023-07-22T12:47:08;2.90;;;1.70;;
65315;SDS011;51920;53.952;10.292;2023-07-22T12:49:35;2.30;;;1.43;;
65315;SDS011;51920;53.952;10.292;2023-07-22T12:52:02;2.00;;;1.40;;
65315;SDS011;51920;53.952;10.292;2023-07-22T12:54:31;2.88;;;1.80;;
65315;SDS011;51920;53.952;10.292;2023-07-22T12:56:58;2.35;;;1.70;;
65315;SDS011;51920;53.952;10.292;2023-07-22T12:59:24;2.72;;;1.98;;
65315;SDS011;51920;53.952;10.292;2023-07-22T13:01:51;2.63;;;1.60;;
65315;SDS011;51920;53.952;10.292;2023-07-22T13:04:18;2.53;;;1.85;;
65315;SDS011;51920;53.952;10.292;2023-07-22T13:06:45;2.75;;;1.80;;
65315;SDS011;51920;53.952;10.292;2023-07-22T13:09:12;2.75;;;1.90;;
65315;SDS011;51920;53.952;10.292;2023-07-22T13:11:38;2.75;;;1.90;;
65315;SDS011;51920;53.952;10.292;2023-07-22T13:14:05;3.67;;;2.20;;
65315;SDS011;51920;53.952;10.292;2023-07-22T13:16:32;3.95;;;2.00;;
65315;SDS011;51920;53.952;10.292;2023-07-22T13:18:58;3.45;;;1.92;;
65315;SDS011;51920;53.952;10.292;2023-07-22T13:21:27;3.20;;;2.30;;
65315;SDS011;51920;53.952;10.292;2023-07-22T13:23:54;4.20;;;2.50;;
65315;SDS011;51920;53.952;10.292;2023-07-22T13:26:21;5.20;;;2.83;;
65315;SDS011;51920;53.952;10.292;2023-07-22T13:28:48;4.57;;;3.13;;
65315;SDS011;51920;53.952;10.292;2023-07-22T13:31:15;4.63;;;3.15;;
65315;SDS011;51920;53.952;10.292;2023-07-22T13:33:41;4.78;;;3.20;;
65315;SDS011;51920;53.952;10.292;2023-07-22T13:36:09;4.65;;;3.00;;
65315;SDS011;51920;53.952;10.292;2023-07-22T13:38:35;5.70;;;3.43;;
65315;SDS011;51920;53.952;10.292;2023-07-22T13:41:03;4.53;;;3.20;;
65315;SDS011;51920;53.952;10.292;2023-07-22T13:43:30;4.97;;;3.10;;
65315;SDS011;51920;53.952;10.292;2023-07-22T13:45:57;4.75;;;3.10;;
65315;SDS011;51920;53.952;10.292;2023-07-22T13:48:24;5.70;;;3.25;;
65315;SDS011;51920;53.952;10.292;2023-07-22T13:50:50;5.43;;;3.00;;
65315;SDS011;51920;53.952;10.292;2023-07-22T13:53:17;5.65;;;3.17;;
65315;SDS011;51920;53.952;10.292;2023-07-22T13:55:44;6.38;;;3.33;;
65315;SDS011;51920;53.952;10.292;2023-07-22T13:58:13;5.93;;;3.47;;
65315;SDS011;51920;53.952;10.292;2023-07-22T14:00:40;5.00;;;3.30;;
65315;SDS011;51920;53.952;10.292;2023-07-22T14:03:06;6.20;;;3.10;;
65315;SDS011;51920;53.952;10.292;2023-07-22T14:05:33;5.13;;;3.20;;
65315;SDS011;51920;53.952;10.292;2023-07-22T14:08:00;4.95;;;3.20;;
65315;SDS011;51920;53.952;10.292;2023-07-22T14:10:27;5.25;;;3.47;;
65315;SDS011;51920;53.952;10.292;2023-07-22T14:12:53;5.88;;;3.65;;
65315;SDS011;51920;53.952;10.292;2023-07-22T14:15:20;5.30;;;3.27;;
65315;SDS011;51920;53.952;10.292;2023-07-22T14:17:47;5.25;;;3.38;;
65315;SDS011;51920;53.952;10.292;2023-07-22T14:20:14;5.22;;;3.20;;
65315;SDS011;51920;53.952;10.292;2023-07-22T14:22:41;5.20;;;3.20;;
65315;SDS011;51920;53.952;10.292;2023-07-22T14:25:09;6.00;;;3.90;;
65315;SDS011;51920;53.952;10.292;2023-07-22T14:27:37;6.80;;;3.90;;
65315;SDS011;51920;53.952;10.292;2023-07-22T14:30:05;5.90;;;3.70;;
65315;SDS011;51920;53.952;10.292;2023-07-22T14:32:32;6.57;;;4.00;;
65315;SDS011;51920;53.952;10.292;2023-07-22T14:34:59;5.47;;;4.00;;
65315;SDS011;51920;53.952;10.292;2023-07-22T14:37:25;6.10;;;4.05;;
65315;SDS011;51920;53.952;10.292;2023-07-22T14:39:52;6.40;;;4.00;;
65315;SDS011;51920;53.952;10.292;2023-07-22T14:42:19;8.10;;;4.30;;
65315;SDS011;51920;53.952;10.292;2023-07-22T14:44:46;7.50;;;4.20;;
65315;SDS011;51920;53.952;10.292;2023-07-22T14:47:13;6.00;;;4.10;;
65315;SDS011;51920;53.952;10.292;2023-07-22T14:49:40;7.35;;;4.45;;
65315;SDS011;51920;53.952;10.292;2023-07-22T14:52:07;7.60;;;4.30;;
65315;SDS011;51920;53.952;10.292;2023-07-22T14:54:34;6.00;;;3.88;;
65315;SDS011;51920;53.952;10.292;2023-07-22T14:57:01;6.80;;;4.53;;
65315;SDS011;51920;53.952;10.292;2023-07-22T14:59:27;7.20;;;4.60;;
65315;SDS011;51920;53.952;10.292;2023-07-22T15:01:54;7.18;;;4.57;;